createdAt,value
2022-08-21T00:01:36.267Z,1.40
2022-08-21T00:04:10.328Z,1.17
2022-08-21T00:06:38.233Z,1.30
2022-08-21T00:09:07.867Z,1.20
2022-08-21T00:11:39.733Z,1.50
2022-08-21T00:14:08.537Z,1.42
2022-08-21T00:16:35.601Z,1.73
2022-08-21T00:19:03.508Z,1.55
2022-08-21T00:21:30.207Z,2.17
2022-08-21T00:23:56.860Z,2.17
2022-08-21T00:26:23.672Z,1.77
2022-08-21T00:28:50.376Z,1.70
2022-08-21T00:31:19.655Z,1.75
2022-08-21T00:33:46.566Z,1.45
2022-08-21T00:36:14.128Z,1.20
2022-08-21T00:38:40.989Z,1.67
2022-08-21T00:41:27.596Z,1.33
2022-08-21T00:43:56.999Z,1.25
2022-08-21T00:46:24.873Z,1.30
2022-08-21T00:48:58.806Z,1.60
2022-08-21T00:51:51.519Z,1.48
2022-08-21T00:54:19.495Z,1.30
2022-08-21T00:56:52.727Z,1.63
2022-08-21T00:59:21.561Z,1.35
2022-08-21T01:01:49.032Z,1.55
2022-08-21T01:04:17.231Z,2.22
2022-08-21T01:06:44.407Z,1.55
2022-08-21T01:09:12.282Z,1.75
2022-08-21T01:11:39.080Z,1.50
2022-08-21T01:14:06.258Z,2.00
2022-08-21T01:16:33.840Z,1.55
2022-08-21T01:19:00.508Z,1.52
2022-08-21T01:21:28.672Z,1.13
2022-08-21T01:23:56.557Z,1.23
2022-08-21T01:26:33.862Z,1.35
2022-08-21T01:29:24.575Z,1.08
2022-08-21T01:31:51.229Z,1.40
2022-08-21T01:34:18.823Z,1.50
2022-08-21T01:36:46.816Z,1.40
2022-08-21T01:39:14.243Z,1.58
2022-08-21T01:41:40.836Z,2.03
2022-08-21T01:44:07.716Z,1.30
2022-08-21T01:46:34.514Z,1.90
2022-08-21T01:49:01.184Z,1.77
2022-08-21T01:51:27.764Z,1.38
2022-08-21T01:53:54.348Z,1.42
2022-08-21T01:56:21.118Z,1.10
2022-08-21T01:58:48.531Z,1.40
2022-08-21T02:01:15.955Z,1.25
2022-08-21T02:03:42.811Z,1.73
2022-08-21T02:06:15.699Z,1.30
2022-08-21T02:08:42.317Z,1.40
2022-08-21T02:11:08.945Z,1.70
2022-08-21T02:13:35.673Z,1.30
2022-08-21T02:16:02.607Z,0.90
2022-08-21T02:18:29.952Z,1.42
2022-08-21T02:20:56.826Z,1.45
2022-08-21T02:23:27.401Z,1.40
2022-08-21T02:25:58.611Z,1.30
2022-08-21T02:28:25.456Z,1.20
2022-08-21T02:30:56.832Z,1.52
2022-08-21T02:33:24.631Z,1.50
2022-08-21T02:35:51.437Z,1.40
2022-08-21T02:38:23.602Z,1.02
2022-08-21T02:40:51.861Z,1.67
2022-08-21T02:43:19.867Z,1.38
2022-08-21T02:45:48.079Z,1.63
2022-08-21T02:48:18.979Z,1.25
2022-08-21T02:50:48.768Z,1.10
2022-08-21T02:53:17.396Z,1.00
2022-08-21T02:55:47.392Z,1.25
2022-08-21T02:58:16.788Z,1.17
2022-08-21T03:00:44.791Z,1.15
2022-08-21T03:03:12.328Z,1.27
2022-08-21T03:05:39.284Z,1.08
2022-08-21T03:08:11.249Z,1.42
2022-08-21T03:10:40.636Z,1.27
2022-08-21T03:13:07.882Z,1.35
2022-08-21T03:15:34.888Z,1.50
2022-08-21T03:18:02.595Z,1.38
2022-08-21T03:20:30.514Z,1.42
2022-08-21T03:22:57.566Z,1.63
2022-08-21T03:25:33.708Z,1.13
2022-08-21T03:28:12.896Z,0.95
2022-08-21T03:30:41.196Z,1.10
2022-08-21T03:33:07.986Z,1.45
2022-08-21T03:35:34.640Z,1.10
2022-08-21T03:38:01.256Z,1.23
2022-08-21T03:40:27.971Z,1.08
2022-08-21T03:42:54.649Z,1.23
2022-08-21T03:45:21.468Z,1.05
2022-08-21T03:47:53.657Z,1.33
2022-08-21T03:50:20.496Z,1.48
2022-08-21T03:52:47.141Z,1.20
2022-08-21T03:55:13.951Z,1.02
2022-08-21T03:57:40.587Z,1.55
2022-08-21T04:00:10.071Z,1.00
2022-08-21T04:02:36.761Z,1.40
2022-08-21T04:05:04.102Z,1.00
2022-08-21T04:07:30.712Z,1.05
2022-08-21T04:09:57.327Z,1.40
2022-08-21T04:12:24.708Z,1.25
2022-08-21T04:14:52.264Z,1.38
2022-08-21T04:17:19.167Z,1.42
2022-08-21T04:19:50.464Z,1.30
2022-08-21T04:22:19.756Z,1.08
2022-08-21T04:24:46.440Z,1.20
2022-08-21T04:27:13.024Z,1.30
2022-08-21T04:29:40.109Z,1.52
2022-08-21T04:32:07.351Z,1.48
2022-08-21T04:34:33.963Z,1.38
2022-08-21T04:37:00.592Z,1.38
2022-08-21T04:39:29.768Z,1.33
2022-08-21T04:41:56.940Z,1.45
2022-08-21T04:44:24.450Z,2.20
2022-08-21T04:46:51.063Z,1.65
2022-08-21T04:49:18.221Z,1.58
2022-08-21T04:51:46.995Z,1.55
2022-08-21T04:54:19.552Z,1.50
2022-08-21T04:56:50.583Z,1.70
2022-08-21T04:59:22.052Z,1.48
2022-08-21T05:01:49.261Z,1.60
2022-08-21T05:04:18.679Z,1.02
2022-08-21T05:06:48.396Z,1.42
2022-08-21T05:09:18.187Z,1.45
2022-08-21T05:11:45.489Z,1.45
2022-08-21T05:14:13.211Z,1.80
2022-08-21T05:16:40.019Z,2.08
2022-08-21T05:19:07.794Z,1.33
2022-08-21T05:21:40.511Z,1.80
2022-08-21T05:24:08.098Z,1.77
2022-08-21T05:26:45.454Z,1.10
2022-08-21T05:29:14.152Z,1.58
2022-08-21T05:31:41.589Z,1.50
2022-08-21T05:34:09.030Z,1.85
2022-08-21T05:36:36.024Z,1.70
2022-08-21T05:39:03.590Z,1.52
2022-08-21T05:41:30.184Z,1.83
2022-08-21T05:43:57.027Z,1.75
2022-08-21T05:46:24.497Z,2.20
2022-08-21T05:48:51.117Z,2.42
2022-08-21T05:51:18.461Z,2.17
2022-08-21T05:53:45.715Z,2.33
2022-08-21T05:56:13.756Z,2.30
2022-08-21T05:58:40.405Z,2.67
2022-08-21T06:01:08.556Z,2.60
2022-08-21T06:03:38.959Z,3.97
2022-08-21T06:06:05.817Z,3.63
2022-08-21T06:08:32.569Z,2.67
2022-08-21T06:11:00.912Z,3.15
2022-08-21T06:13:28.075Z,2.92
2022-08-21T06:16:03.610Z,4.10
2022-08-21T06:18:30.401Z,3.47
2022-08-21T06:20:57.028Z,3.30
2022-08-21T06:23:24.577Z,3.20
2022-08-21T06:26:00.223Z,3.78
2022-08-21T06:28:26.815Z,3.78
2022-08-21T06:30:53.530Z,3.47
2022-08-21T06:33:20.576Z,3.42
2022-08-21T06:35:47.182Z,3.13
2022-08-21T06:38:13.796Z,4.00
2022-08-21T06:40:44.848Z,2.83
2022-08-21T06:43:17.396Z,3.25
2022-08-21T06:45:44.616Z,2.75
2022-08-21T06:48:14.553Z,2.45
2022-08-21T06:50:43.687Z,3.13
2022-08-21T06:53:16.632Z,2.72
2022-08-21T06:55:43.664Z,2.65
2022-08-21T06:58:11.105Z,2.80
2022-08-21T07:00:42.310Z,2.78
2022-08-21T07:03:16.763Z,2.00
2022-08-21T07:05:43.411Z,2.10
2022-08-21T07:08:09.997Z,1.55
2022-08-21T07:10:36.569Z,1.30
2022-08-21T07:13:03.422Z,1.33
2022-08-21T07:15:31.089Z,1.20
2022-08-21T07:18:01.661Z,1.15
2022-08-21T07:20:30.356Z,1.20
2022-08-21T07:23:00.491Z,0.95
2022-08-21T07:25:27.403Z,0.65
2022-08-21T07:27:54.716Z,1.27
2022-08-21T07:30:21.683Z,0.80
2022-08-21T07:32:50.192Z,0.93
2022-08-21T07:35:18.474Z,1.20
2022-08-21T07:37:45.458Z,0.80
2022-08-21T07:40:12.463Z,0.73
2022-08-21T07:42:43.299Z,1.23
2022-08-21T07:45:11.095Z,0.82
2022-08-21T07:47:42.332Z,0.80
2022-08-21T07:50:10.461Z,0.90
2022-08-21T07:52:37.858Z,1.13
2022-08-21T07:55:06.608Z,0.77
2022-08-21T07:57:33.991Z,1.30
2022-08-21T08:00:00.610Z,0.95
2022-08-21T08:02:30.099Z,1.08
2022-08-21T08:05:01.870Z,0.80
2022-08-21T08:07:28.619Z,1.02
2022-08-21T08:09:55.275Z,1.02
2022-08-21T08:12:22.476Z,1.38
2022-08-21T08:14:50.425Z,1.45
2022-08-21T08:17:17.184Z,1.05
2022-08-21T08:19:44.240Z,1.38
2022-08-21T08:22:15.928Z,1.20
2022-08-21T08:24:43.281Z,1.02
2022-08-21T08:27:09.864Z,1.35
2022-08-21T08:29:36.487Z,1.52
2022-08-21T08:32:04.597Z,1.05
2022-08-21T08:34:31.398Z,0.93
2022-08-21T08:36:59.490Z,0.98
2022-08-21T08:39:29.546Z,1.20
2022-08-21T08:42:32.745Z,1.73
2022-08-21T08:45:09.908Z,1.65
2022-08-21T08:47:40.947Z,1.52
2022-08-21T08:50:17.172Z,1.67
2022-08-21T08:52:52.555Z,1.52
2022-08-21T08:55:27.281Z,1.30
2022-08-21T08:57:55.376Z,1.63
2022-08-21T09:00:24.120Z,1.50
2022-08-21T09:02:55.207Z,1.85
2022-08-21T09:05:31.525Z,1.50
2022-08-21T09:08:24.366Z,1.40
2022-08-21T09:11:04.578Z,1.48
2022-08-21T09:13:56.211Z,1.50
2022-08-21T09:16:40.976Z,1.55
2022-08-21T09:19:40.028Z,1.40
2022-08-21T09:22:31.827Z,1.45
2022-08-21T09:25:17.955Z,1.85
2022-08-21T09:27:44.546Z,1.38
2022-08-21T09:30:12.325Z,2.10
2022-08-21T09:32:41.471Z,1.55
2022-08-21T09:35:20.854Z,1.88
2022-08-21T09:38:08.205Z,2.40
2022-08-21T09:40:44.736Z,2.42
2022-08-21T09:43:20.379Z,1.50
2022-08-21T09:45:48.558Z,1.52
2022-08-21T09:48:27.028Z,2.53
2022-08-21T09:51:12.692Z,1.75
2022-08-21T09:53:44.853Z,1.80
2022-08-21T09:56:57.775Z,1.98
2022-08-21T09:59:36.373Z,1.88
2022-08-21T10:02:27.310Z,1.80
2022-08-21T10:04:57.667Z,1.90
2022-08-21T10:07:27.321Z,2.22
2022-08-21T10:10:08.113Z,1.85
2022-08-21T10:13:01.942Z,1.70
2022-08-21T10:15:52.012Z,1.85
2022-08-21T10:18:48.710Z,1.42
2022-08-21T10:21:42.001Z,1.67
2022-08-21T10:24:31.203Z,1.98
2022-08-21T10:27:17.836Z,1.58
2022-08-21T10:29:50.168Z,1.40
2022-08-21T10:32:26.460Z,1.40
2022-08-21T10:35:01.295Z,1.42
2022-08-21T10:37:46.711Z,1.20
2022-08-21T10:40:20.455Z,1.33
2022-08-21T10:43:17.680Z,1.77
2022-08-21T10:46:18.580Z,1.70
2022-08-21T10:48:50.553Z,1.63
2022-08-21T10:51:40.575Z,1.25
2022-08-21T10:54:18.130Z,1.20
2022-08-21T10:56:50.387Z,1.10
2022-08-21T10:59:38.585Z,1.25
2022-08-21T11:02:13.981Z,1.15
2022-08-21T11:04:54.582Z,1.55
2022-08-21T11:07:31.745Z,1.92
2022-08-21T11:10:17.416Z,1.05
2022-08-21T11:13:09.598Z,1.10
2022-08-21T11:15:44.391Z,1.05
2022-08-21T11:18:46.122Z,1.50
2022-08-21T11:21:38.597Z,1.05
2022-08-21T11:24:34.475Z,1.35
2022-08-21T11:27:01.248Z,1.20
2022-08-21T11:29:50.787Z,1.10
2022-08-21T11:32:42.267Z,1.40
2022-08-21T11:35:20.741Z,2.08
2022-08-21T11:37:59.741Z,1.25
2022-08-21T11:40:53.043Z,1.20
2022-08-21T11:43:43.675Z,1.10
2022-08-21T11:46:32.028Z,1.10
2022-08-21T11:49:36.348Z,1.45
2022-08-21T11:52:17.427Z,1.48
2022-08-21T11:54:50.169Z,1.13
2022-08-21T11:57:23.648Z,0.88
2022-08-21T12:00:10.089Z,1.30
2022-08-21T12:02:44.304Z,1.35
2022-08-21T12:05:27.344Z,1.08
2022-08-21T12:08:35.285Z,1.13
2022-08-21T12:11:11.534Z,0.93
2022-08-21T12:13:42.367Z,1.15
2022-08-21T12:16:29.166Z,1.00
2022-08-21T12:19:10.607Z,0.98
2022-08-21T12:22:09.856Z,0.68
2022-08-21T12:24:41.136Z,0.80
2022-08-21T12:27:26.648Z,0.70
2022-08-21T12:30:02.303Z,0.82
2022-08-21T12:32:42.827Z,0.80
2022-08-21T12:35:41.330Z,0.73
2022-08-21T12:38:17.756Z,1.38
2022-08-21T12:40:51.879Z,0.80
2022-08-21T12:43:48.491Z,1.00
2022-08-21T12:46:32.844Z,0.80
2022-08-21T12:49:13.012Z,0.82
2022-08-21T12:51:49.136Z,0.60
2022-08-21T12:54:43.823Z,1.30
2022-08-21T12:57:42.747Z,0.80
2022-08-21T13:00:18.518Z,0.90
2022-08-21T13:02:52.233Z,0.52
2022-08-21T13:05:38.624Z,0.70
2022-08-21T13:08:13.891Z,0.70
2022-08-21T13:13:28.781Z,0.70
2022-08-21T13:16:07.946Z,0.77
2022-08-21T13:19:01.424Z,0.80
2022-08-21T13:21:54.910Z,0.80
2022-08-21T13:24:48.246Z,1.08
2022-08-21T13:27:31.820Z,0.63
2022-08-21T13:30:12.905Z,0.50
2022-08-21T13:32:47.344Z,0.63
2022-08-21T13:35:43.094Z,0.52
2022-08-21T13:38:12.129Z,0.60
2022-08-21T13:40:53.862Z,0.60
2022-08-21T13:43:23.604Z,0.70
2022-08-21T13:45:52.565Z,1.33
2022-08-21T13:48:21.297Z,0.70
2022-08-21T13:50:48.608Z,0.68
2022-08-21T13:53:35.480Z,0.68
2022-08-21T13:56:03.685Z,0.85
2022-08-21T13:58:44.207Z,0.77
2022-08-21T14:01:27.257Z,0.90
2022-08-21T14:03:59.048Z,1.00
2022-08-21T14:06:30.692Z,0.80
2022-08-21T14:23:30.204Z,0.70
2022-08-21T14:26:01.335Z,0.70
2022-08-21T14:28:33.063Z,1.05
2022-08-21T14:31:13.870Z,0.77
2022-08-21T14:33:42.045Z,0.70
2022-08-21T14:36:08.759Z,0.50
2022-08-21T14:38:38.944Z,1.08
2022-08-21T14:41:20.455Z,0.65
2022-08-21T14:43:47.510Z,0.80
2022-08-21T14:46:26.353Z,0.57
2022-08-21T14:48:53.403Z,0.60
2022-08-21T14:51:20.234Z,0.70
2022-08-21T14:53:47.619Z,0.52
2022-08-21T14:56:15.166Z,0.70
2022-08-21T14:58:49.464Z,0.50
2022-08-21T15:01:19.204Z,0.70
2022-08-21T15:03:47.085Z,0.60
2022-08-21T15:06:13.664Z,0.40
2022-08-21T15:08:40.284Z,0.47
2022-08-21T15:11:13.607Z,0.55
2022-08-21T15:13:42.048Z,0.63
2022-08-21T15:16:11.835Z,0.63
2022-08-21T15:18:39.132Z,0.40
2022-08-21T15:21:05.922Z,0.52
2022-08-21T15:23:32.744Z,0.50
2022-08-21T15:25:59.873Z,0.50
2022-08-21T15:28:31.653Z,0.50
2022-08-21T15:31:01.204Z,0.60
2022-08-21T15:33:28.412Z,0.60
2022-08-21T15:35:55.049Z,0.70
2022-08-21T15:38:22.764Z,0.47
2022-08-21T15:40:51.974Z,0.63
2022-08-21T15:43:32.540Z,0.63
2022-08-21T15:46:00.570Z,0.60
2022-08-21T15:48:27.788Z,0.50
2022-08-21T15:50:54.449Z,0.50
2022-08-21T15:53:22.342Z,0.88
2022-08-21T15:55:48.988Z,0.80
2022-08-21T15:58:17.608Z,0.70
2022-08-21T16:00:45.702Z,0.88
2022-08-21T16:03:17.720Z,0.52
2022-08-21T16:05:51.014Z,0.60
2022-08-21T16:08:17.635Z,0.55
2022-08-21T16:10:44.328Z,0.50
2022-08-21T16:13:25.672Z,0.52
2022-08-21T16:15:52.995Z,0.60
2022-08-21T16:18:21.132Z,0.82
2022-08-21T16:20:47.832Z,0.60
2022-08-21T16:23:14.675Z,0.77
2022-08-21T16:25:42.219Z,0.80
2022-08-21T16:28:13.092Z,0.50
2022-08-21T16:30:40.908Z,0.70
2022-08-21T16:33:11.324Z,0.60
2022-08-21T16:35:38.185Z,0.65
2022-08-21T16:38:04.821Z,0.73
2022-08-21T16:40:31.556Z,0.43
2022-08-21T16:42:58.326Z,0.50
2022-08-21T16:45:27.811Z,0.60
2022-08-21T16:47:56.603Z,0.73
2022-08-21T16:50:24.600Z,0.65
2022-08-21T16:52:52.050Z,1.13
2022-08-21T16:55:18.781Z,0.70
2022-08-21T16:57:45.530Z,0.55
2022-08-21T17:00:13.473Z,0.60
2022-08-21T17:02:44.253Z,0.80
2022-08-21T17:05:13.882Z,0.77
2022-08-21T17:07:41.566Z,0.90
2022-08-21T17:10:08.865Z,0.63
2022-08-21T17:12:36.858Z,0.75
2022-08-21T17:15:24.796Z,0.70
2022-08-21T17:17:52.057Z,0.80
2022-08-21T17:20:19.669Z,0.98
2022-08-21T17:22:46.293Z,0.93
2022-08-21T17:25:13.472Z,0.60
2022-08-21T17:27:42.360Z,0.73
2022-08-21T17:30:10.143Z,0.60
2022-08-21T17:32:38.106Z,0.90
2022-08-21T17:35:05.884Z,0.63
2022-08-21T17:37:32.616Z,0.95
2022-08-21T17:39:59.446Z,0.90
2022-08-21T17:42:26.136Z,1.10
2022-08-21T17:44:53.751Z,0.80
2022-08-21T17:47:20.560Z,0.85
2022-08-21T17:49:47.680Z,1.30
2022-08-21T17:52:14.315Z,0.75
2022-08-21T17:54:41.250Z,0.80
2022-08-21T17:57:09.884Z,0.80
2022-08-21T17:59:36.472Z,1.73
2022-08-21T18:02:04.298Z,1.17
2022-08-21T18:04:36.381Z,1.15
2022-08-21T18:07:03.264Z,1.50
2022-08-21T18:09:30.034Z,1.13
2022-08-21T18:11:58.556Z,1.10
2022-08-21T18:14:32.200Z,1.48
2022-08-21T18:16:58.955Z,1.08
2022-08-21T18:19:26.144Z,1.40
2022-08-21T18:21:54.519Z,1.50
2022-08-21T18:24:22.252Z,1.30
2022-08-21T18:26:50.520Z,1.13
2022-08-21T18:29:22.003Z,1.27
2022-08-21T18:31:49.171Z,1.08
2022-08-21T18:34:41.181Z,1.90
2022-08-21T18:37:08.811Z,1.35
2022-08-21T18:39:37.503Z,1.48
2022-08-21T18:42:09.334Z,1.50
2022-08-21T18:44:36.189Z,1.30
2022-08-21T18:47:07.404Z,1.05
2022-08-21T18:49:34.480Z,1.50
2022-08-21T18:52:01.082Z,1.33
2022-08-21T18:54:29.935Z,1.20
2022-08-21T18:56:56.623Z,1.75
2022-08-21T18:59:28.950Z,1.33
2022-08-21T19:01:56.749Z,1.65
2022-08-21T19:04:42.985Z,1.75
2022-08-21T19:07:13.447Z,1.58
2022-08-21T19:09:40.947Z,1.50
2022-08-21T19:12:11.536Z,1.27
2022-08-21T19:14:41.165Z,1.20
2022-08-21T19:17:08.493Z,1.20
2022-08-21T19:19:36.180Z,1.20
2022-08-21T19:22:06.115Z,1.42
2022-08-21T19:24:38.321Z,1.75
2022-08-21T19:27:04.989Z,1.40
2022-08-21T19:29:35.193Z,1.33
2022-08-21T19:32:04.996Z,0.90
2022-08-21T19:34:32.385Z,1.50
2022-08-21T19:37:04.251Z,1.52
2022-08-21T19:39:37.888Z,1.35
2022-08-21T19:42:05.909Z,1.13
2022-08-21T19:44:37.965Z,1.48
2022-08-21T19:47:13.778Z,1.25
2022-08-21T19:49:52.299Z,0.90
2022-08-21T19:52:20.583Z,1.67
2022-08-21T19:54:47.149Z,1.05
2022-08-21T19:57:14.000Z,1.30
2022-08-21T19:59:42.141Z,1.10
2022-08-21T20:02:10.757Z,1.40
2022-08-21T20:04:37.956Z,1.50
2022-08-21T20:07:08.043Z,1.00
2022-08-21T20:09:36.188Z,0.90
2022-08-21T20:12:09.859Z,1.23
2022-08-21T20:14:53.432Z,1.10
2022-08-21T20:17:20.741Z,1.20
2022-08-21T20:19:52.641Z,1.30
2022-08-21T20:22:21.389Z,1.38
2022-08-21T20:24:48.250Z,1.20
2022-08-21T20:27:22.633Z,1.30
2022-08-21T20:29:49.941Z,1.75
2022-08-21T20:32:17.002Z,1.65
2022-08-21T20:34:45.266Z,1.60
2022-08-21T20:37:12.440Z,1.20
2022-08-21T20:39:39.566Z,1.67
2022-08-21T20:42:09.965Z,0.90
2022-08-21T20:44:37.508Z,1.42
2022-08-21T20:47:13.559Z,1.52
2022-08-21T20:49:48.037Z,1.30
2022-08-21T20:52:17.799Z,1.50
2022-08-21T20:54:57.752Z,1.33
2022-08-21T20:57:45.515Z,1.60
2022-08-21T21:00:21.549Z,1.10
2022-08-21T21:03:19.055Z,1.08
2022-08-21T21:05:57.419Z,1.55
2022-08-21T21:08:35.633Z,1.48
2022-08-21T21:11:06.080Z,1.30
2022-08-21T21:13:49.104Z,1.75
2022-08-21T21:16:31.160Z,1.15
2022-08-21T21:19:06.121Z,1.00
2022-08-21T21:21:51.252Z,1.67
2022-08-21T21:24:41.504Z,1.63
2022-08-21T21:27:28.253Z,1.42
2022-08-21T21:30:06.460Z,1.13
2022-08-21T21:32:38.903Z,1.38
2022-08-21T21:35:07.267Z,1.20
2022-08-21T21:38:14.655Z,1.95
2022-08-21T21:40:48.597Z,1.25
2022-08-21T21:43:38.752Z,1.30
2022-08-21T21:46:20.464Z,1.08
2022-08-21T21:49:02.948Z,1.67
2022-08-21T21:55:08.070Z,1.52
2022-08-21T21:57:43.615Z,1.20
2022-08-21T22:00:20.378Z,1.10
2022-08-21T22:03:07.968Z,1.27
2022-08-21T22:05:57.592Z,1.20
2022-08-21T22:11:41.881Z,1.00
2022-08-21T22:14:14.965Z,1.90
2022-08-21T22:16:45.096Z,1.35
2022-08-21T22:19:20.712Z,1.10
2022-08-21T22:21:55.863Z,0.98
2022-08-21T22:27:28.861Z,1.27
2022-08-21T22:30:00.413Z,1.10
2022-08-21T22:32:39.536Z,1.15
2022-08-21T22:35:18.012Z,1.20
2022-08-21T22:37:55.518Z,1.00
2022-08-21T22:40:35.009Z,1.20
2022-08-21T22:43:07.255Z,1.45
2022-08-21T22:49:11.571Z,1.67
2022-08-21T22:51:42.004Z,0.80
2022-08-21T22:54:16.711Z,1.55
2022-08-21T22:56:59.152Z,1.80
2022-08-21T22:59:32.310Z,1.40
2022-08-21T23:02:19.349Z,1.77
2022-08-21T23:04:50.051Z,1.13
2022-08-21T23:07:43.734Z,1.40
2022-08-21T23:10:33.127Z,1.30
2022-08-21T23:13:11.164Z,1.40
2022-08-21T23:16:11.876Z,1.40
2022-08-21T23:19:03.601Z,1.58
2022-08-21T23:21:45.921Z,1.63
2022-08-21T23:24:33.968Z,1.38
2022-08-21T23:27:25.212Z,1.27
2022-08-21T23:30:14.747Z,1.42
2022-08-21T23:33:03.347Z,1.30
2022-08-21T23:36:06.009Z,1.25
2022-08-21T23:38:47.329Z,1.30
2022-08-21T23:41:39.501Z,1.65
2022-08-21T23:44:06.091Z,0.88
2022-08-21T23:46:50.974Z,1.40
2022-08-21T23:49:48.183Z,1.45
2022-08-21T23:52:33.211Z,1.23
2022-08-21T23:55:18.744Z,1.45
2022-08-21T23:58:22.105Z,1.70
